createdAt,value
2023-04-23T00:01:04.298Z,14.18
2023-04-23T00:04:10.043Z,14.13
2023-04-23T00:07:16.527Z,14.18
2023-04-23T00:10:22.903Z,13.94
2023-04-23T00:13:29.321Z,13.98
2023-04-23T00:16:35.100Z,13.90
2023-04-23T00:19:40.451Z,13.91
2023-04-23T00:22:46.075Z,14.07
2023-04-23T00:25:51.900Z,13.98
2023-04-23T00:28:57.251Z,13.93
2023-04-23T00:32:03.582Z,13.95
2023-04-23T00:35:09.813Z,13.97
2023-04-23T00:38:15.349Z,14.04
2023-04-23T00:41:21.419Z,13.99
2023-04-23T00:44:27.058Z,13.99
2023-04-23T00:47:33.673Z,14.05
2023-04-23T00:50:39.404Z,14.04
2023-04-23T00:53:45.095Z,14.00
2023-04-23T00:56:50.719Z,13.92
2023-04-23T00:59:58.593Z,13.92
2023-04-23T01:03:05.591Z,13.92
2023-04-23T01:06:11.501Z,13.89
2023-04-23T01:09:18.394Z,13.80
2023-04-23T01:12:24.344Z,13.72
2023-04-23T01:15:29.499Z,13.77
2023-04-23T01:18:35.238Z,13.74
2023-04-23T01:21:41.996Z,13.59
2023-04-23T01:24:48.081Z,13.65
2023-04-23T01:27:53.737Z,13.77
2023-04-23T01:31:00.204Z,13.62
2023-04-23T01:34:06.328Z,13.55
2023-04-23T01:37:12.404Z,13.54
2023-04-23T01:40:18.331Z,13.52
2023-04-23T01:43:23.904Z,13.47
2023-04-23T01:46:29.559Z,13.43
2023-04-23T01:49:34.860Z,13.43
2023-04-23T01:52:41.470Z,13.46
2023-04-23T01:55:48.135Z,13.45
2023-04-23T01:58:53.791Z,13.31
2023-04-23T02:01:59.700Z,13.22
2023-04-23T02:05:10.531Z,13.15
2023-04-23T02:08:16.287Z,13.08
2023-04-23T02:11:22.310Z,13.12
2023-04-23T02:14:28.422Z,13.13
2023-04-23T02:17:34.216Z,13.12
2023-04-23T02:20:41.386Z,13.32
2023-04-23T02:23:46.597Z,13.25
2023-04-23T02:26:52.223Z,13.22
2023-04-23T02:29:58.666Z,13.22
2023-04-23T02:33:04.356Z,13.18
2023-04-23T02:36:11.354Z,13.16
2023-04-23T02:39:17.281Z,13.12
2023-04-23T02:42:22.855Z,13.05
2023-04-23T02:45:28.941Z,13.12
2023-04-23T02:48:43.291Z,13.02
2023-04-23T02:51:48.930Z,13.08
2023-04-23T02:54:54.510Z,12.96
2023-04-23T02:58:00.924Z,12.90
2023-04-23T03:01:08.056Z,12.92
2023-04-23T03:04:13.939Z,12.88
2023-04-23T03:07:19.380Z,12.79
2023-04-23T03:10:25.022Z,12.91
2023-04-23T03:13:30.974Z,12.95
2023-04-23T03:16:36.710Z,12.85
2023-04-23T03:19:42.442Z,12.93
2023-04-23T03:22:51.453Z,12.96
2023-04-23T03:25:56.923Z,12.81
2023-04-23T03:29:02.451Z,12.94
2023-04-23T03:32:08.341Z,12.76
2023-04-23T03:35:13.997Z,12.71
2023-04-23T03:38:23.251Z,12.62
2023-04-23T03:41:31.642Z,12.52
2023-04-23T03:44:37.185Z,12.61
2023-04-23T03:47:44.083Z,12.59
2023-04-23T03:50:50.080Z,12.59
2023-04-23T03:54:16.036Z,12.56
2023-04-23T03:57:44.421Z,12.57
2023-04-23T04:01:03.446Z,12.51
2023-04-23T04:04:09.735Z,12.43
2023-04-23T04:07:16.021Z,12.45
2023-04-23T04:10:21.903Z,12.31
2023-04-23T04:13:27.655Z,12.39
2023-04-23T04:16:33.122Z,12.39
2023-04-23T04:19:39.310Z,12.44
2023-04-23T04:22:44.614Z,12.43
2023-04-23T04:25:51.962Z,12.39
2023-04-23T04:28:58.817Z,12.41
2023-04-23T04:32:05.642Z,12.34
2023-04-23T04:35:13.029Z,12.28
2023-04-23T04:38:18.702Z,12.43
2023-04-23T04:41:28.247Z,12.31
2023-04-23T04:44:33.790Z,12.44
2023-04-23T04:47:39.577Z,12.51
2023-04-23T04:50:46.890Z,12.56
2023-04-23T04:53:52.169Z,12.63
2023-04-23T04:56:58.048Z,12.86
2023-04-23T05:00:22.817Z,12.75
2023-04-23T05:03:29.265Z,12.72
2023-04-23T05:06:34.514Z,12.59
2023-04-23T05:09:41.935Z,12.94
2023-04-23T05:12:48.466Z,12.87
2023-04-23T05:15:53.979Z,12.77
2023-04-23T05:18:59.252Z,12.92
2023-04-23T05:22:05.170Z,12.88
2023-04-23T05:25:12.350Z,13.01
2023-04-23T05:28:18.129Z,12.98
2023-04-23T05:31:23.743Z,13.26
2023-04-23T05:34:29.583Z,13.45
2023-04-23T05:37:35.987Z,13.28
2023-04-23T05:40:41.373Z,13.28
2023-04-23T05:43:46.937Z,13.43
2023-04-23T05:46:52.419Z,13.38
2023-04-23T05:49:57.850Z,13.54
2023-04-23T05:53:02.975Z,13.80
2023-04-23T05:56:09.080Z,13.90
2023-04-23T05:59:14.696Z,14.13
2023-04-23T06:02:22.493Z,14.31
2023-04-23T06:05:29.964Z,14.35
2023-04-23T06:08:35.709Z,14.15
2023-04-23T06:11:40.924Z,14.37
2023-04-23T06:14:46.284Z,14.42
2023-04-23T06:17:51.575Z,14.71
2023-04-23T06:20:57.702Z,14.85
2023-04-23T06:24:02.615Z,14.76
2023-04-23T06:27:08.315Z,14.56
2023-04-23T06:30:18.487Z,14.78
2023-04-23T06:33:25.244Z,14.89
2023-04-23T06:36:30.707Z,15.14
2023-04-23T06:39:36.683Z,15.11
2023-04-23T06:42:42.984Z,15.04
2023-04-23T06:46:09.428Z,15.32
2023-04-23T06:49:14.349Z,15.29
2023-04-23T06:52:19.922Z,15.22
2023-04-23T06:55:26.501Z,15.48
2023-04-23T06:58:32.620Z,15.79
2023-04-23T07:01:40.820Z,15.86
2023-04-23T07:04:46.094Z,15.86
2023-04-23T07:07:53.527Z,15.80
2023-04-23T07:10:58.968Z,15.77
2023-04-23T07:14:04.679Z,15.60
2023-04-23T07:17:11.730Z,15.84
2023-04-23T07:20:17.308Z,16.00
2023-04-23T07:23:22.903Z,16.18
2023-04-23T07:26:29.095Z,16.47
2023-04-23T07:29:35.130Z,16.37
2023-04-23T07:32:40.975Z,16.37
2023-04-23T07:35:46.821Z,16.67
2023-04-23T07:38:52.376Z,16.76
2023-04-23T07:41:58.829Z,16.69
2023-04-23T07:45:04.809Z,16.88
2023-04-23T07:48:10.297Z,16.80
2023-04-23T07:51:16.436Z,17.08
2023-04-23T07:54:23.505Z,17.14
2023-04-23T07:57:30.602Z,17.05
2023-04-23T08:00:36.601Z,17.21
2023-04-23T08:03:43.162Z,17.14
2023-04-23T08:06:49.120Z,17.30
2023-04-23T08:09:54.669Z,17.39
2023-04-23T08:13:00.164Z,17.34
2023-04-23T08:16:06.430Z,17.48
2023-04-23T08:19:12.246Z,17.69
2023-04-23T08:22:20.265Z,17.84
2023-04-23T08:25:25.613Z,17.71
2023-04-23T08:28:31.446Z,18.03
2023-04-23T08:31:37.636Z,18.20
2023-04-23T08:34:43.369Z,18.09
2023-04-23T08:37:48.863Z,18.11
2023-04-23T08:40:58.062Z,17.81
2023-04-23T08:44:18.542Z,18.14
2023-04-23T08:47:25.548Z,18.17
2023-04-23T08:50:31.476Z,18.04
2023-04-23T08:53:39.979Z,18.09
2023-04-23T08:56:46.894Z,18.24
2023-04-23T08:59:53.250Z,18.34
2023-04-23T09:02:59.435Z,18.55
2023-04-23T09:06:06.098Z,18.52
2023-04-23T09:09:13.387Z,18.40
2023-04-23T09:12:18.929Z,18.50
2023-04-23T09:15:24.123Z,18.57
2023-04-23T09:18:29.208Z,18.88
2023-04-23T09:21:35.927Z,18.85
2023-04-23T09:24:44.724Z,18.81
2023-04-23T09:27:51.864Z,19.07
2023-04-23T09:30:57.575Z,19.10
2023-04-23T09:34:03.695Z,19.20
2023-04-23T09:37:11.245Z,19.35
2023-04-23T09:40:20.354Z,19.58
2023-04-23T09:43:31.257Z,19.35
2023-04-23T09:46:37.869Z,19.55
2023-04-23T09:49:48.249Z,19.72
2023-04-23T09:52:57.506Z,19.66
2023-04-23T09:56:02.765Z,19.48
2023-04-23T09:59:46.722Z,19.60
2023-04-23T10:02:54.543Z,19.86
2023-04-23T10:06:02.345Z,19.78
2023-04-23T10:09:08.239Z,19.78
2023-04-23T10:15:27.231Z,20.15
2023-04-23T10:18:33.560Z,20.14
2023-04-23T10:21:50.126Z,20.22
2023-04-23T10:25:03.467Z,20.35
2023-04-23T10:28:12.186Z,20.38
2023-04-23T10:31:20.399Z,20.46
2023-04-23T10:34:27.732Z,20.44
2023-04-23T10:37:34.212Z,20.16
2023-04-23T10:40:41.645Z,20.19
2023-04-23T10:43:47.534Z,20.18
2023-04-23T10:47:01.287Z,20.56
2023-04-23T10:50:24.014Z,20.95
2023-04-23T10:53:32.149Z,20.27
2023-04-23T10:56:41.605Z,20.66
2023-04-23T10:59:59.211Z,20.93
2023-04-23T11:03:05.071Z,21.00
2023-04-23T11:06:15.876Z,20.89
2023-04-23T11:09:36.599Z,20.60
2023-04-23T11:12:42.270Z,20.77
2023-04-23T11:15:47.771Z,20.95
2023-04-23T11:19:05.253Z,21.20
2023-04-23T11:22:21.791Z,21.29
2023-04-23T11:25:28.759Z,21.55
2023-04-23T11:28:37.182Z,21.30
2023-04-23T11:31:58.338Z,21.14
2023-04-23T11:35:11.422Z,21.39
2023-04-23T11:38:18.493Z,21.04
2023-04-23T11:41:24.575Z,21.19
2023-04-23T11:44:33.355Z,21.25
2023-04-23T11:47:39.241Z,21.46
2023-04-23T11:50:44.758Z,21.36
2023-04-23T11:53:50.095Z,21.75
2023-04-23T11:56:58.306Z,22.03
2023-04-23T12:00:24.971Z,21.37
2023-04-23T12:03:30.679Z,21.28
2023-04-23T12:06:36.611Z,21.66
2023-04-23T12:09:46.322Z,21.14
2023-04-23T12:12:53.035Z,21.71
2023-04-23T12:16:00.853Z,21.54
2023-04-23T12:19:10.886Z,21.52
2023-04-23T12:22:16.609Z,21.56
2023-04-23T12:25:26.185Z,21.57
2023-04-23T12:28:31.809Z,21.32
2023-04-23T12:31:39.412Z,21.29
2023-04-23T12:34:57.268Z,21.55
2023-04-23T12:38:05.956Z,21.75
2023-04-23T12:41:11.389Z,22.07
2023-04-23T12:44:16.960Z,22.09
2023-04-23T12:47:22.570Z,22.29
2023-04-23T12:50:27.916Z,22.28
2023-04-23T12:53:33.347Z,22.49
2023-04-23T12:56:39.055Z,22.52
2023-04-23T12:59:45.053Z,22.28
2023-04-23T13:02:51.043Z,22.25
2023-04-23T13:05:56.703Z,21.62
2023-04-23T13:09:05.661Z,22.09
2023-04-23T13:12:11.354Z,21.97
2023-04-23T13:15:17.493Z,22.45
2023-04-23T13:18:24.251Z,22.65
2023-04-23T13:21:29.792Z,22.58
2023-04-23T13:24:35.571Z,22.01
2023-04-23T13:27:41.242Z,21.80
2023-04-23T13:30:46.789Z,22.54
2023-04-23T13:33:52.946Z,23.08
2023-04-23T13:37:05.690Z,23.04
2023-04-23T13:40:11.812Z,22.58
2023-04-23T13:43:17.300Z,22.14
2023-04-23T13:46:22.897Z,22.37
2023-04-23T13:49:28.365Z,22.06
2023-04-23T13:52:35.512Z,21.91
2023-04-23T13:55:41.144Z,22.05
2023-04-23T13:58:48.662Z,22.21
2023-04-23T14:01:54.112Z,22.29
2023-04-23T14:04:59.912Z,22.29
2023-04-23T14:08:05.402Z,22.06
2023-04-23T14:11:11.286Z,21.94
2023-04-23T14:14:16.941Z,21.85
2023-04-23T14:17:22.643Z,22.10
2023-04-23T14:20:27.920Z,22.50
2023-04-23T14:24:12.083Z,22.19
2023-04-23T14:27:17.801Z,21.98
2023-04-23T14:30:26.581Z,22.21
2023-04-23T14:33:31.912Z,22.04
2023-04-23T14:36:37.882Z,22.63
2023-04-23T14:39:43.538Z,22.98
2023-04-23T14:42:49.366Z,23.01
2023-04-23T14:45:55.077Z,23.10
2023-04-23T14:49:00.400Z,23.25
2023-04-23T14:52:06.354Z,23.14
2023-04-23T14:55:11.969Z,23.31
2023-04-23T14:58:17.161Z,23.22
2023-04-23T15:01:22.337Z,22.98
2023-04-23T15:04:27.928Z,22.82
2023-04-23T15:07:34.268Z,22.80
2023-04-23T15:10:39.824Z,22.78
2023-04-23T15:14:05.423Z,22.74
2023-04-23T15:17:10.820Z,22.55
2023-04-23T15:20:17.015Z,22.60
2023-04-23T15:23:24.320Z,22.71
2023-04-23T15:26:30.446Z,22.57
2023-04-23T15:29:35.637Z,22.57
2023-04-23T15:32:41.439Z,22.56
2023-04-23T15:35:47.310Z,22.18
2023-04-23T15:38:52.609Z,22.14
2023-04-23T15:41:58.393Z,22.30
2023-04-23T15:45:04.120Z,22.17
2023-04-23T15:48:10.384Z,22.19
2023-04-23T15:51:15.516Z,22.23
2023-04-23T15:54:21.019Z,22.06
2023-04-23T15:57:26.902Z,21.96
2023-04-23T16:00:34.043Z,21.89
2023-04-23T16:03:39.629Z,21.73
2023-04-23T16:06:45.421Z,21.66
2023-04-23T16:09:51.486Z,21.76
2023-04-23T16:12:58.981Z,21.70
2023-04-23T16:16:04.535Z,21.61
2023-04-23T16:19:10.002Z,21.49
2023-04-23T16:22:16.425Z,21.60
2023-04-23T16:25:21.806Z,21.56
2023-04-23T16:28:27.318Z,21.54
2023-04-23T16:31:33.115Z,21.31
2023-04-23T16:34:38.664Z,21.31
2023-04-23T16:37:44.230Z,21.18
2023-04-23T16:40:50.498Z,21.08
2023-04-23T16:43:56.280Z,21.16
2023-04-23T16:47:01.972Z,21.05
2023-04-23T16:50:08.185Z,20.91
2023-04-23T16:53:13.870Z,20.95
2023-04-23T16:56:19.567Z,20.87
2023-04-23T16:59:25.033Z,20.79
2023-04-23T17:02:30.874Z,20.65
2023-04-23T17:05:39.859Z,20.51
2023-04-23T17:08:45.610Z,20.41
2023-04-23T17:11:51.397Z,20.25
2023-04-23T17:14:57.148Z,20.26
2023-04-23T17:18:02.897Z,20.03
2023-04-23T17:21:08.499Z,20.05
2023-04-23T17:24:14.122Z,19.99
2023-04-23T17:27:19.506Z,19.92
2023-04-23T17:30:24.897Z,19.86
2023-04-23T17:33:30.375Z,19.82
2023-04-23T17:36:36.259Z,19.73
2023-04-23T17:39:42.040Z,19.66
2023-04-23T17:42:47.718Z,19.58
2023-04-23T17:45:53.440Z,19.48
2023-04-23T17:48:59.150Z,19.41
2023-04-23T17:52:06.549Z,19.36
2023-04-23T17:55:13.888Z,19.26
2023-04-23T17:58:19.644Z,19.17
2023-04-23T18:01:25.616Z,19.08
2023-04-23T18:04:33.298Z,19.04
2023-04-23T18:07:39.671Z,18.89
2023-04-23T18:10:46.281Z,18.83
2023-04-23T18:13:53.734Z,18.78
2023-04-23T18:16:59.465Z,18.67
2023-04-23T18:20:11.886Z,18.63
2023-04-23T18:23:18.433Z,18.59
2023-04-23T18:26:24.214Z,18.48
2023-04-23T18:29:30.108Z,18.49
2023-04-23T18:32:40.170Z,18.49
2023-04-23T18:35:50.372Z,18.36
2023-04-23T18:38:56.535Z,18.32
2023-04-23T18:42:02.165Z,18.17
2023-04-23T18:45:09.159Z,18.14
2023-04-23T18:49:00.890Z,18.14
2023-04-23T18:52:07.160Z,17.99
2023-04-23T18:55:13.158Z,17.98
2023-04-23T18:58:19.206Z,17.97
2023-04-23T19:01:27.801Z,17.94
2023-04-23T19:04:34.028Z,17.87
2023-04-23T19:07:41.616Z,17.86
2023-04-23T19:10:47.811Z,17.81
2023-04-23T19:13:53.276Z,17.79
2023-04-23T19:16:59.237Z,17.70
2023-04-23T19:20:05.322Z,17.61
2023-04-23T19:23:11.367Z,17.46
2023-04-23T19:26:16.925Z,17.41
2023-04-23T19:29:23.892Z,17.41
2023-04-23T19:32:33.894Z,17.39
2023-04-23T19:35:40.366Z,17.34
2023-04-23T19:38:46.938Z,17.27
2023-04-23T19:41:52.902Z,17.21
2023-04-23T19:44:59.027Z,17.20
2023-04-23T19:48:04.921Z,17.12
2023-04-23T19:51:10.996Z,17.19
2023-04-23T19:54:16.562Z,17.19
2023-04-23T19:57:22.614Z,17.05
2023-04-23T20:00:30.956Z,16.94
2023-04-23T20:03:37.061Z,16.99
2023-04-23T20:06:43.531Z,16.98
2023-04-23T20:09:48.786Z,16.91
2023-04-23T20:12:54.482Z,16.87
2023-04-23T20:16:00.647Z,16.79
2023-04-23T20:19:11.324Z,16.81
2023-04-23T20:22:16.865Z,16.67
2023-04-23T20:25:25.622Z,16.61
2023-04-23T20:28:31.572Z,16.69
2023-04-23T20:31:37.379Z,16.71
2023-04-23T20:34:42.664Z,16.61
2023-04-23T20:37:48.217Z,16.70
2023-04-23T20:40:54.278Z,16.53
2023-04-23T20:44:00.368Z,16.56
2023-04-23T20:47:08.703Z,16.64
2023-04-23T20:50:14.586Z,16.57
2023-04-23T20:53:19.945Z,16.52
2023-04-23T20:56:25.572Z,16.54
2023-04-23T20:59:31.524Z,16.50
2023-04-23T21:02:38.239Z,16.61
2023-04-23T21:05:45.185Z,16.47
2023-04-23T21:08:51.144Z,16.54
2023-04-23T21:11:57.216Z,16.48
2023-04-23T21:15:02.799Z,16.50
2023-04-23T21:18:09.951Z,16.36
2023-04-23T21:21:15.624Z,16.24
2023-04-23T21:24:21.348Z,16.22
2023-04-23T21:27:27.312Z,16.46
2023-04-23T21:30:53.638Z,16.31
2023-04-23T21:33:59.813Z,16.24
2023-04-23T21:37:05.189Z,16.34
2023-04-23T21:40:11.028Z,16.27
2023-04-23T21:43:16.980Z,16.41
2023-04-23T21:46:25.286Z,16.47
2023-04-23T21:49:32.006Z,16.43
2023-04-23T21:52:38.244Z,16.43
2023-04-23T21:55:43.738Z,16.33
2023-04-23T21:58:49.233Z,16.27
2023-04-23T22:01:55.620Z,16.31
2023-04-23T22:05:01.336Z,16.36
2023-04-23T22:08:09.868Z,16.30
2023-04-23T22:11:17.548Z,16.23
2023-04-23T22:14:22.983Z,16.32
2023-04-23T22:17:30.791Z,16.21
2023-04-23T22:20:38.101Z,16.18
2023-04-23T22:23:43.277Z,16.14
2023-04-23T22:26:48.675Z,16.05
2023-04-23T22:29:54.737Z,15.94
2023-04-23T22:33:00.105Z,16.08
2023-04-23T22:36:05.888Z,15.98
2023-04-23T22:39:12.929Z,16.04
2023-04-23T22:42:18.587Z,15.88
2023-04-23T22:45:24.387Z,15.94
2023-04-23T22:48:31.391Z,15.88
2023-04-23T22:51:38.994Z,15.87
2023-04-23T22:54:44.373Z,15.92
2023-04-23T22:57:50.163Z,15.84
2023-04-23T23:00:55.781Z,15.83
2023-04-23T23:04:01.157Z,15.87
2023-04-23T23:07:07.085Z,15.86
2023-04-23T23:10:12.503Z,15.82
2023-04-23T23:13:18.017Z,15.74
2023-04-23T23:16:23.744Z,15.66
2023-04-23T23:19:31.236Z,15.71
2023-04-23T23:22:36.789Z,15.68
2023-04-23T23:25:42.468Z,15.65
2023-04-23T23:28:48.082Z,15.63
2023-04-23T23:31:53.510Z,15.66
2023-04-23T23:34:59.233Z,15.67
2023-04-23T23:38:04.513Z,15.58
2023-04-23T23:41:10.302Z,15.58
2023-04-23T23:44:16.907Z,15.55
2023-04-23T23:47:22.861Z,15.60
2023-04-23T23:50:28.740Z,15.59
2023-04-23T23:53:34.385Z,15.58
2023-04-23T23:56:40.210Z,15.63
2023-04-23T23:59:45.805Z,15.52
